ASL187 UWGG-LYBE
Flight info
| Callsign | ASL187 |
|---|---|
| Flight time | N/A |
| Altitude | 34000 |
| Route | LARNO2S LARNO T784 IBROT M864 TEKBO N858 LAFAT/N0426F340 DCT BOKSU M857 PODAN DCT KEKED DCT PARAK DCT TISAK |
| Aircraft | A319/M-SDE3FGHIRWY/LB1 |
Departure
| Time | 2026-04-30 18:40 |
|---|---|
| Airport | Nizhny Novgorod / Strigino International Airport (UWGG) |
Arrival
| Time | N/A |
|---|---|
| Airport | Belgrade Nikola Tesla Airport (LYBE) |
| Time | Latitude | Longitude | Altitude | Speed | Heading |
|---|---|---|---|---|---|
| 2026-04-30 17:52 | 56.21981 | 43.78865 | 266 ft | 0 kts | 101° |
| 2026-04-30 18:29 | 56.21998 | 43.78750 | 266 ft | 4 kts | 139° |
| 2026-04-30 18:30 | 56.22025 | 43.78737 | 266 ft | 0 kts | 191° |
| 2026-04-30 18:36 | 56.22019 | 43.78735 | 266 ft | 3 kts | 191° |
| 2026-04-30 18:36 | 56.21987 | 43.78724 | 266 ft | 6 kts | 191° |
| 2026-04-30 18:36 | 56.21941 | 43.78701 | 266 ft | 3 kts | 216° |
| 2026-04-30 18:37 | 56.21923 | 43.78662 | 266 ft | 6 kts | 236° |
| 2026-04-30 18:37 | 56.21913 | 43.78582 | 266 ft | 8 kts | 280° |
| 2026-04-30 18:37 | 56.21925 | 43.78468 | 266 ft | 10 kts | 282° |
| 2026-04-30 18:37 | 56.21929 | 43.78432 | 267 ft | 0 kts | 282° |
| 2026-04-30 18:39 | 56.21933 | 43.78402 | 267 ft | 5 kts | 282° |
| 2026-04-30 18:39 | 56.21943 | 43.78315 | 267 ft | 9 kts | 281° |
| 2026-04-30 18:39 | 56.21982 | 43.78218 | 266 ft | 11 kts | 352° |
| 2026-04-30 18:39 | 56.21998 | 43.78221 | 267 ft | 0 kts | 9° |
| 2026-04-30 18:40 | 56.22218 | 43.78300 | 266 ft | 68 kts | 11° |
| 2026-04-30 18:40 | 56.22895 | 43.78548 | 267 ft | 126 kts | 11° |
| 2026-04-30 18:40 | 56.23874 | 43.78902 | 483 ft | 147 kts | 11° |
| 2026-04-30 18:40 | 56.24903 | 43.79264 | 973 ft | 154 kts | 10° |
| 2026-04-30 18:41 | 56.25974 | 43.79588 | 1589 ft | 155 kts | 8° |
| 2026-04-30 18:41 | 56.27012 | 43.79895 | 2313 ft | 149 kts | 10° |
| 2026-04-30 18:41 | 56.28077 | 43.80273 | 2759 ft | 168 kts | 12° |
| 2026-04-30 18:41 | 56.29340 | 43.80762 | 3236 ft | 200 kts | 12° |
| 2026-04-30 18:42 | 56.30732 | 43.81308 | 4080 ft | 202 kts | 12° |
| 2026-04-30 18:42 | 56.33298 | 43.82317 | 6238 ft | 180 kts | 12° |
| 2026-04-30 18:42 | 56.34506 | 43.82793 | 7052 ft | 177 kts | 12° |
| 2026-04-30 18:45 | 56.38949 | 44.04730 | 11891 ft | 309 kts | 98° |
| 2026-04-30 18:45 | 56.38683 | 44.08610 | 12270 ft | 315 kts | 101° |
| 2026-04-30 18:45 | 56.37873 | 44.12371 | 12662 ft | 331 kts | 124° |
| 2026-04-30 18:46 | 56.36238 | 44.15366 | 13100 ft | 341 kts | 148° |
| 2026-04-30 18:46 | 56.34044 | 44.16945 | 13938 ft | 342 kts | 171° |
| 2026-04-30 18:46 | 56.31695 | 44.16906 | 14621 ft | 345 kts | 193° |
| 2026-04-30 18:46 | 56.29485 | 44.15240 | 15304 ft | 348 kts | 215° |
| 2026-04-30 18:47 | 56.27766 | 44.12167 | 15988 ft | 352 kts | 237° |
| 2026-04-30 18:47 | 56.26788 | 44.08125 | 16669 ft | 356 kts | 258° |
| 2026-04-30 18:47 | 56.26274 | 44.03737 | 17333 ft | 360 kts | 257° |
| 2026-04-30 18:47 | 56.25664 | 43.99345 | 18037 ft | 363 kts | 256° |
| 2026-04-30 18:48 | 56.25017 | 43.94932 | 18674 ft | 367 kts | 255° |
| 2026-04-30 18:48 | 56.24361 | 43.90474 | 19266 ft | 370 kts | 255° |
| 2026-04-30 18:48 | 56.23706 | 43.85977 | 19841 ft | 374 kts | 255° |
| 2026-04-30 18:48 | 56.23049 | 43.81430 | 20400 ft | 377 kts | 255° |
| 2026-04-30 18:49 | 56.22389 | 43.76847 | 20971 ft | 381 kts | 255° |
| 2026-04-30 18:49 | 56.21724 | 43.72217 | 21533 ft | 384 kts | 255° |
| 2026-04-30 18:49 | 56.21051 | 43.67539 | 22076 ft | 388 kts | 255° |
| 2026-04-30 18:49 | 56.20370 | 43.62819 | 22628 ft | 392 kts | 255° |
| 2026-04-30 18:50 | 56.19681 | 43.58058 | 23156 ft | 395 kts | 255° |
| 2026-04-30 18:50 | 56.18995 | 43.53326 | 23682 ft | 399 kts | 255° |
| 2026-04-30 18:50 | 56.18291 | 43.48490 | 24156 ft | 401 kts | 255° |
| 2026-04-30 18:50 | 56.17583 | 43.43636 | 24632 ft | 403 kts | 255° |
| 2026-04-30 18:51 | 56.16868 | 43.38752 | 25090 ft | 406 kts | 255° |
| 2026-04-30 18:51 | 56.16147 | 43.33838 | 25530 ft | 409 kts | 255° |
| 2026-04-30 18:51 | 56.15417 | 43.28880 | 25956 ft | 412 kts | 255° |
| 2026-04-30 18:51 | 56.14682 | 43.23905 | 26381 ft | 414 kts | 255° |
| 2026-04-30 18:52 | 56.13939 | 43.18888 | 26793 ft | 417 kts | 255° |
| 2026-04-30 18:52 | 56.13190 | 43.13845 | 27193 ft | 420 kts | 255° |
| 2026-04-30 18:52 | 56.12433 | 43.08766 | 27578 ft | 422 kts | 255° |
| 2026-04-30 18:52 | 56.11670 | 43.03659 | 27959 ft | 425 kts | 255° |
| 2026-04-30 18:53 | 56.10901 | 42.98529 | 28336 ft | 427 kts | 255° |
| 2026-04-30 18:53 | 56.10126 | 42.93379 | 28696 ft | 430 kts | 255° |
| 2026-04-30 18:53 | 56.09343 | 42.88189 | 29041 ft | 432 kts | 255° |
| 2026-04-30 18:53 | 56.08554 | 42.82972 | 29390 ft | 435 kts | 255° |
| 2026-04-30 18:54 | 56.07759 | 42.77734 | 29701 ft | 437 kts | 255° |
| 2026-04-30 18:54 | 56.06957 | 42.72470 | 30015 ft | 440 kts | 255° |
| 2026-04-30 18:54 | 56.06149 | 42.67181 | 30320 ft | 442 kts | 255° |
| 2026-04-30 18:54 | 56.05333 | 42.61859 | 30571 ft | 445 kts | 255° |
| 2026-04-30 18:55 | 56.04628 | 42.56458 | 30817 ft | 448 kts | 260° |
| 2026-04-30 18:55 | 56.04081 | 42.45384 | 31308 ft | 452 kts | 270° |
| 2026-04-30 18:55 | 56.04127 | 42.39735 | 31615 ft | 453 kts | 270° |
| 2026-04-30 18:56 | 56.04186 | 42.28451 | 32265 ft | 454 kts | 270° |
| 2026-04-30 18:56 | 56.04209 | 42.22812 | 32579 ft | 455 kts | 270° |
| 2026-04-30 18:56 | 56.04230 | 42.17134 | 32895 ft | 455 kts | 270° |
| 2026-04-30 18:57 | 56.04268 | 42.05804 | 33499 ft | 456 kts | 270° |
| 2026-04-30 18:57 | 56.04283 | 42.00124 | 33806 ft | 456 kts | 270° |
| 2026-04-30 18:57 | 56.04296 | 41.94429 | 34102 ft | 457 kts | 270° |
| 2026-04-30 18:58 | 56.04320 | 41.77484 | 34186 ft | 455 kts | 270° |
| 2026-04-30 18:59 | 56.04321 | 41.60517 | 34185 ft | 455 kts | 270° |
| 2026-04-30 19:00 | 56.04287 | 41.37871 | 34192 ft | 455 kts | 270° |
| 2026-04-30 19:01 | 56.04210 | 41.15192 | 34200 ft | 456 kts | 270° |
| 2026-04-30 19:02 | 56.04126 | 40.98178 | 34201 ft | 456 kts | 270° |
| 2026-04-30 19:03 | 56.03979 | 40.75559 | 34203 ft | 457 kts | 270° |
| 2026-04-30 19:04 | 56.03783 | 40.52813 | 34207 ft | 457 kts | 270° |
| 2026-04-30 19:05 | 56.03547 | 40.30131 | 34207 ft | 457 kts | 270° |
| 2026-04-30 19:06 | 56.03268 | 40.07377 | 34209 ft | 458 kts | 270° |
| 2026-04-30 19:06 | 56.03031 | 39.90289 | 34209 ft | 458 kts | 270° |
| 2026-04-30 19:07 | 56.02772 | 39.73206 | 34205 ft | 458 kts | 270° |
| 2026-04-30 19:08 | 56.00297 | 39.50886 | 34213 ft | 463 kts | 253° |
| 2026-04-30 19:09 | 55.97588 | 39.36260 | 34212 ft | 463 kts | 253° |
| 2026-04-30 19:09 | 55.95570 | 39.25406 | 34216 ft | 464 kts | 253° |
| 2026-04-30 19:10 | 55.91459 | 39.03540 | 34212 ft | 465 kts | 253° |
| 2026-04-30 19:11 | 55.88360 | 38.87229 | 34213 ft | 465 kts | 253° |
| 2026-04-30 19:12 | 55.86270 | 38.76307 | 34216 ft | 466 kts | 253° |
| 2026-04-30 19:12 | 55.84170 | 38.65390 | 34219 ft | 466 kts | 253° |
| 2026-04-30 19:13 | 55.79934 | 38.43558 | 34213 ft | 467 kts | 253° |
| 2026-04-30 19:14 | 55.77796 | 38.32633 | 34214 ft | 468 kts | 253° |
| 2026-04-30 19:14 | 55.75647 | 38.21713 | 34216 ft | 468 kts | 253° |
| 2026-04-30 19:15 | 55.73500 | 38.10863 | 34218 ft | 469 kts | 253° |
| 2026-04-30 19:15 | 55.70238 | 37.94493 | 34219 ft | 469 kts | 253° |
| 2026-04-30 19:16 | 55.68051 | 37.83593 | 34216 ft | 469 kts | 253° |
| 2026-04-30 19:17 | 55.64872 | 37.67170 | 34209 ft | 468 kts | 257° |
| 2026-04-30 19:17 | 55.62626 | 37.50446 | 34210 ft | 467 kts | 259° |
| 2026-04-30 19:18 | 55.60366 | 37.33650 | 34209 ft | 468 kts | 259° |
| 2026-04-30 19:19 | 55.58844 | 37.22439 | 34209 ft | 468 kts | 259° |
| 2026-04-30 19:19 | 55.56545 | 37.05652 | 34214 ft | 468 kts | 259° |
| 2026-04-30 19:20 | 55.55008 | 36.94537 | 34211 ft | 469 kts | 259° |
| 2026-04-30 19:21 | 55.53386 | 36.77606 | 34217 ft | 463 kts | 273° |
| 2026-04-30 19:22 | 55.54972 | 36.55268 | 34226 ft | 458 kts | 282° |
| 2026-04-30 19:23 | 55.57810 | 36.21886 | 34237 ft | 459 kts | 282° |
| 2026-04-30 19:24 | 55.59202 | 36.05142 | 34242 ft | 458 kts | 282° |
| 2026-04-30 19:25 | 55.61466 | 35.77287 | 34245 ft | 458 kts | 282° |
| 2026-04-30 19:26 | 55.62908 | 35.54854 | 34247 ft | 461 kts | 275° |
| 2026-04-30 19:27 | 55.62254 | 35.37852 | 34246 ft | 465 kts | 268° |
| 2026-04-30 19:28 | 55.61270 | 35.20781 | 34247 ft | 465 kts | 268° |
| 2026-04-30 19:29 | 55.59925 | 34.98007 | 34256 ft | 465 kts | 268° |